createdAt,value
2024-05-09T00:00:48.364Z,0.70
2024-05-09T00:03:36.546Z,0.77
2024-05-09T00:06:05.629Z,0.70
2024-05-09T00:08:34.146Z,0.82
2024-05-09T00:11:03.036Z,0.65
2024-05-09T00:13:31.436Z,0.60
2024-05-09T00:16:00.202Z,0.80
2024-05-09T00:18:28.444Z,0.60
2024-05-09T00:20:57.083Z,0.88
2024-05-09T00:23:25.380Z,0.82
2024-05-09T00:25:53.985Z,0.90
2024-05-09T00:28:22.470Z,0.70
2024-05-09T00:30:51.417Z,0.80
2024-05-09T00:33:19.597Z,0.73
2024-05-09T00:35:48.140Z,0.80
2024-05-09T00:38:16.285Z,0.70
2024-05-09T00:40:44.968Z,1.02
2024-05-09T00:43:14.554Z,0.60
2024-05-09T00:45:44.348Z,0.68
2024-05-09T00:48:19.740Z,0.60
2024-05-09T00:50:50.976Z,0.40
2024-05-09T00:53:19.570Z,0.60
2024-05-09T00:55:48.628Z,0.65
2024-05-09T00:58:20.999Z,0.80
2024-05-09T01:00:50.704Z,0.63
2024-05-09T01:03:19.982Z,0.60
2024-05-09T01:05:48.841Z,0.80
2024-05-09T01:08:17.140Z,0.60
2024-05-09T01:10:47.903Z,0.80
2024-05-09T01:13:16.785Z,0.70
2024-05-09T01:15:45.364Z,0.70
2024-05-09T01:18:14.444Z,0.70
2024-05-09T01:20:44.927Z,0.75
2024-05-09T01:23:15.851Z,0.80
2024-05-09T01:25:46.502Z,0.68
2024-05-09T01:28:16.579Z,0.77
2024-05-09T01:30:45.325Z,0.63
2024-05-09T01:33:14.049Z,0.60
2024-05-09T01:35:43.376Z,0.60
2024-05-09T01:38:17.541Z,0.80
2024-05-09T01:40:47.387Z,0.50
2024-05-09T01:43:16.330Z,0.60
2024-05-09T01:45:44.910Z,0.52
2024-05-09T01:48:13.309Z,0.60
2024-05-09T01:50:43.268Z,0.77
2024-05-09T01:53:14.910Z,0.80
2024-05-09T01:55:44.616Z,0.77
2024-05-09T01:58:13.433Z,0.70
2024-05-09T02:00:43.379Z,0.60
2024-05-09T02:03:16.122Z,1.10
2024-05-09T02:05:48.425Z,0.70
2024-05-09T02:08:21.875Z,0.80
2024-05-09T02:10:51.010Z,0.68
2024-05-09T02:13:19.297Z,0.52
2024-05-09T02:15:52.567Z,0.68
2024-05-09T02:18:21.158Z,0.60
2024-05-09T02:20:50.111Z,0.60
2024-05-09T02:23:18.541Z,0.90
2024-05-09T02:25:47.092Z,0.70
2024-05-09T02:28:15.262Z,0.73
2024-05-09T02:30:43.746Z,0.70
2024-05-09T02:33:13.736Z,0.80
2024-05-09T02:35:44.220Z,0.87
2024-05-09T02:38:13.497Z,0.60
2024-05-09T02:40:42.327Z,0.60
2024-05-09T02:43:13.051Z,0.85
2024-05-09T02:45:42.189Z,0.77
2024-05-09T02:48:12.085Z,0.57
2024-05-09T02:50:42.035Z,0.60
2024-05-09T02:53:14.452Z,0.75
2024-05-09T02:55:43.503Z,0.70
2024-05-09T02:58:12.469Z,0.68
2024-05-09T03:00:42.592Z,0.80
2024-05-09T03:03:14.104Z,0.57
2024-05-09T03:05:45.299Z,0.63
2024-05-09T03:08:14.150Z,0.77
2024-05-09T03:10:43.203Z,0.60
2024-05-09T03:13:15.081Z,0.97
2024-05-09T03:15:45.242Z,0.93
2024-05-09T03:18:13.922Z,1.05
2024-05-09T03:20:44.832Z,1.00
2024-05-09T03:23:13.249Z,0.73
2024-05-09T03:25:42.000Z,0.73
2024-05-09T03:28:11.606Z,1.10
2024-05-09T03:30:42.634Z,0.70
2024-05-09T03:33:19.405Z,0.73
2024-05-09T03:35:49.629Z,0.75
2024-05-09T03:38:18.517Z,0.68
2024-05-09T03:40:49.070Z,0.70
2024-05-09T03:43:19.098Z,0.80
2024-05-09T03:45:50.738Z,0.90
2024-05-09T03:48:19.249Z,0.80
2024-05-09T03:50:48.255Z,1.10
2024-05-09T03:53:16.623Z,0.82
2024-05-09T03:55:48.799Z,0.95
2024-05-09T03:58:16.977Z,0.60
2024-05-09T04:00:45.591Z,0.70
2024-05-09T04:03:13.974Z,0.90
2024-05-09T04:05:46.254Z,1.33
2024-05-09T04:08:15.802Z,1.00
2024-05-09T04:10:44.528Z,0.77
2024-05-09T04:13:12.618Z,1.02
2024-05-09T04:15:41.123Z,0.80
2024-05-09T04:18:09.369Z,0.82
2024-05-09T04:20:40.392Z,1.10
2024-05-09T04:23:14.308Z,0.85
2024-05-09T04:25:45.479Z,0.90
2024-05-09T04:28:14.488Z,0.80
2024-05-09T04:30:43.671Z,1.10
2024-05-09T04:33:13.988Z,1.25
2024-05-09T04:35:44.130Z,1.05
2024-05-09T04:38:16.059Z,1.40
2024-05-09T04:40:44.953Z,1.00
2024-05-09T04:43:18.977Z,1.40
2024-05-09T04:45:47.737Z,1.00
2024-05-09T04:48:16.786Z,1.00
2024-05-09T04:50:45.653Z,0.73
2024-05-09T04:53:17.505Z,1.20
2024-05-09T04:55:46.391Z,0.90
2024-05-09T04:58:14.627Z,1.13
2024-05-09T05:00:44.362Z,0.98
2024-05-09T05:03:14.982Z,1.23
2024-05-09T05:05:46.666Z,0.90
2024-05-09T05:08:17.133Z,1.10
2024-05-09T05:10:47.735Z,1.20
2024-05-09T05:13:18.499Z,1.20
2024-05-09T05:15:47.995Z,1.20
2024-05-09T05:18:17.038Z,0.65
2024-05-09T05:20:46.083Z,1.20
2024-05-09T05:23:16.308Z,0.88
2024-05-09T05:25:48.271Z,0.83
2024-05-09T05:28:17.383Z,1.23
2024-05-09T05:30:46.575Z,0.90
2024-05-09T05:33:19.244Z,0.90
2024-05-09T05:35:48.491Z,1.10
2024-05-09T05:38:16.732Z,0.90
2024-05-09T05:40:45.425Z,1.00
2024-05-09T05:43:18.311Z,1.10
2024-05-09T05:45:47.133Z,1.02
2024-05-09T05:48:17.438Z,0.98
2024-05-09T05:50:46.495Z,1.10
2024-05-09T05:53:14.773Z,1.00
2024-05-09T05:55:43.356Z,1.30
2024-05-09T05:58:12.799Z,1.08
2024-05-09T06:00:42.237Z,1.00
2024-05-09T06:03:12.810Z,1.17
2024-05-09T06:05:46.958Z,1.00
2024-05-09T06:08:15.398Z,0.95
2024-05-09T06:10:44.023Z,1.20
2024-05-09T06:13:14.602Z,1.30
2024-05-09T06:15:43.768Z,1.40
2024-05-09T06:18:15.173Z,1.10
2024-05-09T06:20:44.388Z,1.10
2024-05-09T06:23:13.311Z,1.10
2024-05-09T06:25:42.713Z,1.65
2024-05-09T06:28:11.707Z,1.55
2024-05-09T06:30:42.567Z,1.60
2024-05-09T06:33:14.215Z,1.30
2024-05-09T06:35:46.392Z,1.40
2024-05-09T06:38:14.798Z,1.10
2024-05-09T06:40:44.401Z,0.77
2024-05-09T06:43:14.754Z,0.83
2024-05-09T06:45:44.390Z,0.85
2024-05-09T06:48:12.702Z,0.80
2024-05-09T06:50:41.692Z,1.30
2024-05-09T06:53:10.018Z,1.20
2024-05-09T06:55:38.713Z,1.10
2024-05-09T06:58:07.913Z,1.50
2024-05-09T07:00:39.812Z,1.00
2024-05-09T07:03:11.540Z,1.20
2024-05-09T07:05:41.826Z,1.25
2024-05-09T07:08:10.076Z,1.30
2024-05-09T07:10:38.794Z,1.60
2024-05-09T07:13:10.648Z,1.85
2024-05-09T07:15:39.616Z,1.42
2024-05-09T07:18:17.696Z,1.65
2024-05-09T07:20:49.135Z,1.40
2024-05-09T07:23:18.973Z,1.17
2024-05-09T07:25:47.809Z,1.20
2024-05-09T07:28:17.756Z,0.90
2024-05-09T07:30:46.354Z,0.85
2024-05-09T07:33:19.375Z,0.73
2024-05-09T07:35:48.798Z,0.70
2024-05-09T07:38:16.951Z,0.70
2024-05-09T07:40:45.659Z,0.50
2024-05-09T07:43:14.991Z,0.43
2024-05-09T07:45:51.437Z,0.73
2024-05-09T07:52:46.049Z,0.60
2024-05-09T07:53:50.569Z,0.60
2024-05-09T07:56:23.154Z,0.67
2024-05-09T07:58:54.129Z,0.70
2024-05-09T08:01:26.350Z,0.50
2024-05-09T08:03:55.483Z,0.40
2024-05-09T08:06:24.668Z,0.60
2024-05-09T08:08:52.935Z,0.68
2024-05-09T08:11:21.571Z,0.70
2024-05-09T08:13:49.785Z,0.70
2024-05-09T08:16:18.241Z,0.60
2024-05-09T08:18:46.495Z,0.60
2024-05-09T08:21:15.068Z,0.50
2024-05-09T08:23:43.132Z,0.90
2024-05-09T08:26:12.161Z,0.80
2024-05-09T08:28:40.253Z,0.97
2024-05-09T08:31:10.471Z,0.82
2024-05-09T08:33:44.793Z,1.17
2024-05-09T08:36:14.161Z,0.95
2024-05-09T08:38:42.183Z,1.35
2024-05-09T08:41:13.995Z,0.90
2024-05-09T08:43:44.721Z,0.85
2024-05-09T08:46:14.592Z,1.08
2024-05-09T08:48:45.952Z,0.90
2024-05-09T08:51:14.702Z,0.85
2024-05-09T08:53:42.869Z,1.25
2024-05-09T08:56:12.205Z,1.00
2024-05-09T08:58:42.812Z,1.05
2024-05-09T09:01:12.562Z,1.05
2024-05-09T09:03:42.780Z,0.90
2024-05-09T09:06:18.403Z,0.95
2024-05-09T09:08:47.711Z,1.25
2024-05-09T09:11:16.292Z,1.10
2024-05-09T09:13:44.419Z,1.30
2024-05-09T09:16:13.129Z,1.00
2024-05-09T09:18:44.870Z,1.00
2024-05-09T09:21:13.798Z,0.90
2024-05-09T09:23:41.997Z,1.23
2024-05-09T09:26:16.175Z,0.98
2024-05-09T09:28:47.379Z,1.10
2024-05-09T09:31:19.526Z,0.93
2024-05-09T09:33:48.086Z,1.10
2024-05-09T09:36:18.654Z,0.93
2024-05-09T09:38:48.256Z,1.33
2024-05-09T09:41:18.114Z,1.00
2024-05-09T09:43:46.359Z,1.00
2024-05-09T09:46:15.258Z,1.00
2024-05-09T09:48:44.971Z,1.30
2024-05-09T09:51:15.351Z,1.15
2024-05-09T09:53:44.379Z,1.40
2024-05-09T09:56:15.164Z,1.00
2024-05-09T09:58:44.983Z,0.93
2024-05-09T10:01:13.690Z,0.82
2024-05-09T10:03:45.690Z,0.80
2024-05-09T10:06:15.802Z,1.17
2024-05-09T10:08:47.017Z,1.30
2024-05-09T10:11:20.867Z,1.10
2024-05-09T10:13:51.751Z,1.40
2024-05-09T10:16:23.171Z,1.30
2024-05-09T10:18:51.524Z,1.40
2024-05-09T10:21:20.776Z,1.23
2024-05-09T10:24:03.932Z,1.35
2024-05-09T10:26:37.252Z,1.50
2024-05-09T10:29:15.338Z,1.25
2024-05-09T10:31:46.468Z,1.42
2024-05-09T10:34:37.882Z,1.30
2024-05-09T10:37:06.594Z,1.40
2024-05-09T10:39:39.130Z,1.30
2024-05-09T10:42:10.820Z,1.10
2024-05-09T10:44:39.151Z,1.20
2024-05-09T10:47:07.946Z,1.07
2024-05-09T10:49:36.226Z,1.63
2024-05-09T10:52:05.030Z,1.40
2024-05-09T10:54:39.850Z,1.58
2024-05-09T10:57:08.411Z,1.05
2024-05-09T10:59:39.507Z,1.20
2024-05-09T11:02:08.291Z,1.20
2024-05-09T11:04:40.547Z,1.40
2024-05-09T11:07:13.031Z,1.30
2024-05-09T11:09:43.483Z,1.70
2024-05-09T11:12:12.353Z,1.50
2024-05-09T11:14:40.499Z,1.88
2024-05-09T11:17:09.099Z,1.70
2024-05-09T11:19:45.111Z,2.20
2024-05-09T11:22:13.954Z,1.67
2024-05-09T11:24:42.175Z,1.55
2024-05-09T11:27:10.724Z,1.50
2024-05-09T11:29:39.436Z,1.40
2024-05-09T11:32:13.904Z,1.80
2024-05-09T11:34:42.974Z,1.70
2024-05-09T11:37:13.488Z,1.77
2024-05-09T11:39:41.813Z,1.35
2024-05-09T11:42:10.347Z,1.73
2024-05-09T11:44:38.371Z,1.88
2024-05-09T11:47:07.125Z,1.95
2024-05-09T11:49:35.412Z,1.80
2024-05-09T11:52:04.353Z,1.75
2024-05-09T11:54:32.713Z,2.20
2024-05-09T11:57:01.322Z,1.90
2024-05-09T11:59:29.430Z,1.80
2024-05-09T12:01:58.036Z,1.50
2024-05-09T12:04:26.587Z,1.80
2024-05-09T12:06:55.291Z,1.88
2024-05-09T12:09:23.520Z,1.58
2024-05-09T12:11:52.174Z,1.60
2024-05-09T12:14:20.291Z,1.80
2024-05-09T12:16:48.929Z,1.65
2024-05-09T12:19:18.115Z,2.20
2024-05-09T12:21:46.683Z,2.10
2024-05-09T12:24:17.720Z,1.88
2024-05-09T12:26:47.653Z,1.67
2024-05-09T12:29:15.999Z,1.90
2024-05-09T12:31:44.563Z,1.58
2024-05-09T12:34:13.102Z,2.58
2024-05-09T12:36:42.162Z,2.47
2024-05-09T12:39:10.418Z,2.47
2024-05-09T12:41:39.088Z,2.40
2024-05-09T12:44:07.151Z,2.47
2024-05-09T12:46:35.806Z,2.27
2024-05-09T12:49:04.250Z,2.70
2024-05-09T12:51:33.085Z,2.70
2024-05-09T12:54:01.288Z,2.70
2024-05-09T12:56:29.961Z,2.30
2024-05-09T12:58:58.101Z,2.20
2024-05-09T13:01:26.743Z,3.30
2024-05-09T13:03:55.025Z,2.10
2024-05-09T13:06:23.626Z,2.30
2024-05-09T13:08:51.768Z,2.10
2024-05-09T13:11:20.434Z,2.30
2024-05-09T13:13:48.727Z,2.17
2024-05-09T13:16:17.525Z,2.00
2024-05-09T13:18:45.854Z,1.80
2024-05-09T13:21:14.688Z,2.05
2024-05-09T13:23:42.746Z,1.70
2024-05-09T13:26:11.288Z,1.85
2024-05-09T13:28:39.404Z,2.30
2024-05-09T13:31:07.971Z,2.20
2024-05-09T13:33:36.383Z,2.40
2024-05-09T13:36:05.339Z,2.10
2024-05-09T13:38:33.553Z,2.05
2024-05-09T13:41:02.065Z,2.25
2024-05-09T13:43:30.420Z,1.75
2024-05-09T13:45:59.286Z,1.77
2024-05-09T13:48:27.564Z,1.40
2024-05-09T13:50:56.325Z,1.48
2024-05-09T13:53:25.440Z,2.10
2024-05-09T13:55:54.093Z,1.92
2024-05-09T13:58:23.747Z,1.65
2024-05-09T14:00:52.635Z,1.55
2024-05-09T14:03:21.457Z,1.92
2024-05-09T14:05:51.950Z,1.70
2024-05-09T14:08:22.632Z,1.70
2024-05-09T14:10:52.636Z,2.10
2024-05-09T14:13:21.101Z,1.63
2024-05-09T14:15:50.002Z,1.90
2024-05-09T14:18:18.426Z,1.95
2024-05-09T14:20:46.989Z,2.05
2024-05-09T14:23:17.836Z,2.55
2024-05-09T14:25:50.066Z,1.60
2024-05-09T14:28:22.440Z,1.40
2024-05-09T14:30:51.304Z,1.40
2024-05-09T14:33:27.161Z,1.10
2024-05-09T14:35:56.033Z,1.50
2024-05-09T14:38:24.972Z,1.20
2024-05-09T14:40:53.944Z,1.30
2024-05-09T14:43:22.351Z,1.23
2024-05-09T14:45:51.096Z,1.20
2024-05-09T14:48:20.277Z,2.10
2024-05-09T14:50:48.985Z,1.40
2024-05-09T14:53:17.006Z,1.17
2024-05-09T14:55:45.802Z,1.15
2024-05-09T14:58:14.103Z,1.30
2024-05-09T15:00:46.923Z,1.40
2024-05-09T15:03:19.709Z,1.48
2024-05-09T15:05:49.410Z,1.60
2024-05-09T15:08:18.709Z,1.55
2024-05-09T15:10:50.442Z,1.30
2024-05-09T15:13:19.835Z,1.30
2024-05-09T15:15:48.875Z,1.50
2024-05-09T15:18:18.061Z,1.40
2024-05-09T15:20:47.061Z,1.38
2024-05-09T15:23:15.219Z,1.65
2024-05-09T15:25:45.081Z,1.30
2024-05-09T15:28:13.298Z,1.45
2024-05-09T15:30:45.482Z,1.60
2024-05-09T15:33:15.469Z,1.45
2024-05-09T15:35:46.495Z,1.70
2024-05-09T15:38:15.985Z,1.53
2024-05-09T15:40:44.822Z,2.00
2024-05-09T15:43:12.992Z,1.80
2024-05-09T15:45:41.906Z,1.60
2024-05-09T15:48:11.291Z,1.73
2024-05-09T15:50:42.239Z,1.80
2024-05-09T15:53:13.419Z,1.80
2024-05-09T15:55:43.244Z,1.60
2024-05-09T15:58:12.872Z,1.98
2024-05-09T16:00:44.880Z,1.40
2024-05-09T16:03:15.258Z,1.55
2024-05-09T16:05:46.519Z,2.20
2024-05-09T16:08:15.994Z,2.53
2024-05-09T16:10:47.919Z,1.50
2024-05-09T16:13:17.443Z,1.90
2024-05-09T16:15:46.798Z,1.60
2024-05-09T16:18:15.662Z,1.60
2024-05-09T16:20:46.294Z,1.47
2024-05-09T16:23:16.530Z,1.67
2024-05-09T16:25:48.398Z,2.22
2024-05-09T16:28:17.132Z,2.00
2024-05-09T16:30:46.217Z,2.00
2024-05-09T16:33:14.761Z,2.25
2024-05-09T16:35:42.892Z,2.40
2024-05-09T16:38:11.370Z,2.05
2024-05-09T16:40:41.154Z,2.30
2024-05-09T16:43:12.165Z,2.10
2024-05-09T16:45:45.359Z,2.60
2024-05-09T16:48:14.655Z,2.20
2024-05-09T16:50:43.379Z,2.28
2024-05-09T16:53:13.757Z,2.20
2024-05-09T16:55:42.056Z,2.10
2024-05-09T16:58:12.831Z,2.20
2024-05-09T17:00:43.475Z,2.30
2024-05-09T17:03:15.365Z,2.28
2024-05-09T17:05:47.238Z,1.90
2024-05-09T17:08:20.408Z,2.00
2024-05-09T17:10:49.641Z,2.00
2024-05-09T17:13:19.314Z,2.00
2024-05-09T17:15:48.392Z,1.70
2024-05-09T17:18:17.050Z,1.67
2024-05-09T17:20:45.249Z,2.00
2024-05-09T17:23:14.429Z,1.80
2024-05-09T17:25:43.568Z,1.70
2024-05-09T17:28:12.578Z,1.60
2024-05-09T17:30:42.285Z,1.40
2024-05-09T17:33:12.907Z,1.60
2024-05-09T17:35:41.936Z,1.60
2024-05-09T17:38:10.522Z,1.55
2024-05-09T17:40:39.412Z,1.70
2024-05-09T17:43:10.951Z,1.52
2024-05-09T17:45:40.882Z,1.60
2024-05-09T17:48:11.492Z,1.58
2024-05-09T17:50:41.376Z,1.70
2024-05-09T17:53:11.329Z,1.80
2024-05-09T17:55:40.465Z,1.50
2024-05-09T17:58:10.140Z,1.90
2024-05-09T18:00:41.298Z,1.60
2024-05-09T18:03:12.532Z,2.15
2024-05-09T18:05:43.675Z,1.80
2024-05-09T18:08:13.773Z,1.95
2024-05-09T18:10:42.481Z,2.60
2024-05-09T18:13:12.467Z,2.35
2024-05-09T18:15:41.253Z,2.00
2024-05-09T18:18:12.213Z,2.35
2024-05-09T18:20:44.636Z,2.17
2024-05-09T18:23:16.779Z,2.33
2024-05-09T18:25:47.135Z,2.88
2024-05-09T18:28:17.066Z,2.80
2024-05-09T18:30:45.875Z,3.17
2024-05-09T18:33:14.758Z,3.30
2024-05-09T18:35:44.249Z,3.38
2024-05-09T18:38:13.059Z,2.80
2024-05-09T18:40:43.682Z,4.75
2024-05-09T18:43:13.999Z,2.90
2024-05-09T18:45:43.611Z,2.45
2024-05-09T18:48:13.468Z,2.65
2024-05-09T18:50:41.933Z,2.50
2024-05-09T18:53:12.713Z,3.08
2024-05-09T18:55:42.389Z,2.72
2024-05-09T18:58:11.397Z,3.80
2024-05-09T19:00:41.852Z,3.97
2024-05-09T19:03:14.868Z,3.28
2024-05-09T19:05:45.254Z,3.00
2024-05-09T19:08:15.730Z,2.80
2024-05-09T19:10:46.123Z,2.58
2024-05-09T19:13:15.503Z,2.42
2024-05-09T19:15:44.324Z,2.60
2024-05-09T19:18:14.897Z,2.50
2024-05-09T19:20:44.503Z,2.90
2024-05-09T19:23:13.619Z,4.00
2024-05-09T19:25:41.661Z,3.65
2024-05-09T19:28:10.562Z,4.00
2024-05-09T19:30:41.795Z,4.15
2024-05-09T19:33:13.457Z,3.17
2024-05-09T19:35:43.560Z,3.70
2024-05-09T19:38:12.853Z,3.78
2024-05-09T19:40:41.398Z,4.10
2024-05-09T19:43:10.558Z,3.50
2024-05-09T19:45:38.761Z,3.85
2024-05-09T19:48:08.101Z,3.45
2024-05-09T19:50:42.182Z,3.17
2024-05-09T19:53:14.343Z,3.05
2024-05-09T19:55:42.809Z,2.88
2024-05-09T19:58:12.635Z,3.17
2024-05-09T20:00:43.365Z,3.22
2024-05-09T20:03:15.278Z,3.33
2024-05-09T20:05:46.775Z,3.22
2024-05-09T20:08:17.011Z,3.53
2024-05-09T20:10:45.278Z,3.00
2024-05-09T20:13:14.449Z,3.10
2024-05-09T20:15:42.805Z,3.23
2024-05-09T20:18:11.798Z,3.30
2024-05-09T20:20:42.832Z,4.13
2024-05-09T20:23:14.421Z,3.50
2024-05-09T20:25:42.947Z,3.38
2024-05-09T20:28:11.734Z,3.17
2024-05-09T20:30:40.175Z,3.78
2024-05-09T20:33:09.800Z,3.03
2024-05-09T20:35:38.447Z,3.72
2024-05-09T20:38:07.239Z,3.67
2024-05-09T20:40:38.331Z,3.60
2024-05-09T20:43:10.238Z,3.65
2024-05-09T20:45:39.537Z,3.40
2024-05-09T20:48:09.448Z,3.30
2024-05-09T20:50:41.144Z,3.45
2024-05-09T20:53:13.202Z,4.00
2024-05-09T20:55:45.690Z,4.22
2024-05-09T20:58:14.686Z,3.55
2024-05-09T21:00:45.641Z,3.70
2024-05-09T21:03:16.834Z,3.58
2024-05-09T21:05:46.977Z,3.45
2024-05-09T21:08:16.160Z,2.90
2024-05-09T21:10:44.575Z,3.03
2024-05-09T21:13:13.239Z,3.35
2024-05-09T21:15:41.521Z,3.10
2024-05-09T21:18:10.198Z,3.23
2024-05-09T21:20:38.506Z,3.00
2024-05-09T21:23:07.194Z,3.08
2024-05-09T21:25:35.414Z,3.35
2024-05-09T21:28:04.276Z,3.13
2024-05-09T21:30:40.943Z,3.08
2024-05-09T21:33:13.894Z,2.90
2024-05-09T21:35:44.437Z,2.85
2024-05-09T21:38:14.763Z,2.80
2024-05-09T21:40:44.131Z,2.65
2024-05-09T21:43:13.110Z,2.67
2024-05-09T21:45:41.385Z,2.57
2024-05-09T21:48:09.614Z,2.80
2024-05-09T21:50:41.155Z,2.35
2024-05-09T21:53:12.391Z,2.80
2024-05-09T21:55:45.126Z,3.50
2024-05-09T21:58:16.280Z,2.78
2024-05-09T22:00:46.593Z,3.10
2024-05-09T22:03:15.371Z,2.70
2024-05-09T22:05:45.177Z,2.63
2024-05-09T22:08:13.957Z,2.50
2024-05-09T22:10:42.953Z,2.50
2024-05-09T22:13:11.147Z,2.85
2024-05-09T22:15:40.596Z,2.72
2024-05-09T22:18:11.004Z,2.65
2024-05-09T22:20:45.841Z,2.72
2024-05-09T22:23:15.934Z,3.03
2024-05-09T22:25:44.790Z,2.90
2024-05-09T22:28:16.362Z,2.67
2024-05-09T22:30:47.355Z,2.72
2024-05-09T22:33:16.286Z,2.72
2024-05-09T22:35:45.511Z,2.53
2024-05-09T22:38:13.951Z,2.58
2024-05-09T22:40:47.905Z,2.70
2024-05-09T22:43:23.370Z,2.72
2024-05-09T22:45:57.024Z,3.03
2024-05-09T22:48:26.012Z,3.03
2024-05-09T22:50:55.288Z,2.75
2024-05-09T22:53:25.449Z,2.80
2024-05-09T22:55:54.613Z,2.90
2024-05-09T22:58:23.382Z,2.80
2024-05-09T23:00:52.415Z,2.45
2024-05-09T23:03:22.036Z,2.67
2024-05-09T23:05:52.291Z,2.70
2024-05-09T23:08:20.488Z,2.50
2024-05-09T23:10:49.101Z,2.42
2024-05-09T23:13:17.207Z,2.80
2024-05-09T23:15:45.912Z,2.60
2024-05-09T23:18:14.239Z,2.35
2024-05-09T23:20:42.928Z,2.38
2024-05-09T23:23:12.231Z,2.63
2024-05-09T23:25:44.016Z,2.13
2024-05-09T23:28:12.744Z,2.50
2024-05-09T23:30:42.235Z,2.30
2024-05-09T23:33:14.810Z,2.00
2024-05-09T23:35:44.515Z,2.20
2024-05-09T23:38:13.651Z,1.90
2024-05-09T23:40:43.177Z,1.93
2024-05-09T23:43:12.791Z,1.90
2024-05-09T23:45:42.774Z,1.58
2024-05-09T23:48:11.782Z,1.80
2024-05-09T23:50:41.326Z,1.73
2024-05-09T23:53:10.821Z,2.00
2024-05-09T23:55:40.124Z,1.77
2024-05-09T23:58:09.170Z,1.45
